Terminal Aerodrome Forecast
Issued by NWS Jackson, MS

Home | Current Version | Previous Version | Text Only | Print | Product List | Glossary On
Versions: 1 2 3 4 5 6 7 8 9 10 11 12
000
FTUS44 KMEG 232300
TAFTUP
TAF
KTUP 232327Z 2400/2424 VRB03KT P6SM FEW050 BKN150
     FM240600 34003KT 6SM BR FEW040 BKN250
     FM241300 01005KT 4SM BR BKN020
     FM241700 36007KT P6SM SCT030=

USA.gov is the U.S. government's official web portal to all federal, state and local government web resources and services.